Time;durP1;ratioP1;P1;durP2;ratioP2;P2;SDS_P1;SDS_P2;PMS_P1;PMS_P2;Temp;Humidity;BMP_temperature;BMP_pressure;BME280_temperature;BME280_humidity;BME280_pressure;Samples;Min_cycle;Max_cycle;Signal;HPM_P1;HPM_P2
2024/02/26 00:01:50;;;;;;;33.15;13.45;;;;;;;;;;5009733;28;20475;-81
2024/02/26 00:04:16;;;;;;;22.33;12.48;;;;;;;;;;5010240;28;20113;-80
2024/02/26 01:08:44;;;;;;;22.10;11.50;;;;;;;;;;4999808;28;20490;-75
2024/02/26 01:11:11;;;;;;;34.15;14.88;;;;;;;;;;5009487;28;20403;-81
2024/02/26 01:13:37;;;;;;;25.80;14.35;;;;;;;;;;5077249;28;20076;-81
2024/02/26 01:16:03;;;;;;;28.20;13.63;;;;;;;;;;5077044;28;20056;-75
2024/02/26 01:18:29;;;;;;;26.98;13.63;;;;;;;;;;5077271;28;20037;-81
2024/02/26 01:20:55;;;;;;;18.10;9.73;;;;;;;;;;5005035;28;20101;-75
2024/02/26 01:23:21;;;;;;;16.30;8.52;;;;;;;;;;5063766;28;20033;-74
2024/02/26 01:25:48;;;;;;;17.85;9.55;;;;;;;;;;5080080;28;20023;-74
2024/02/26 01:28:14;;;;;;;18.17;10.82;;;;;;;;;;4995529;28;20045;-75
2024/02/26 01:30:40;;;;;;;20.80;10.77;;;;;;;;;;5077012;28;20033;-80
2024/02/26 01:33:07;;;;;;;22.20;13.07;;;;;;;;;;5076858;28;20022;-80
2024/02/26 01:35:33;;;;;;;32.65;15.57;;;;;;;;;;5010732;28;20482;-75
2024/02/26 01:37:59;;;;;;;31.45;15.23;;;;;;;;;;5012757;28;20053;-80
2024/02/26 01:40:29;;;;;;;32.67;15.48;;;;;;;;;;5012701;28;20407;-75
2024/02/26 01:42:55;;;;;;;33.00;18.23;;;;;;;;;;5012498;28;20026;-76
2024/02/26 01:45:24;;;;;;;24.00;13.02;;;;;;;;;;5011580;28;20018;-82
2024/02/26 01:47:53;;;;;;;23.98;12.57;;;;;;;;;;5080711;28;20112;-76
2024/02/26 01:50:20;;;;;;;24.95;12.75;;;;;;;;;;5080669;28;20022;-75
2024/02/26 01:52:50;;;;;;;21.67;11.50;;;;;;;;;;5000812;28;20050;-82
2024/02/26 01:55:16;;;;;;;20.20;11.23;;;;;;;;;;5010904;28;20058;-81
2024/02/26 01:57:44;;;;;;;27.98;12.73;;;;;;;;;;5080552;28;20117;-75
2024/02/26 02:00:11;;;;;;;25.90;14.07;;;;;;;;;;5008294;28;20114;-81
2024/02/26 02:02:38;;;;;;;24.08;12.23;;;;;;;;;;5011953;28;20078;-81
2024/02/26 02:05:05;;;;;;;17.40;11.32;;;;;;;;;;5080100;28;20026;-81
2024/02/26 02:07:31;;;;;;;18.52;10.57;;;;;;;;;;5080168;28;20022;-76
2024/02/26 02:09:57;;;;;;;23.77;12.40;;;;;;;;;;5080177;28;20021;-80
2024/02/26 02:12:24;;;;;;;23.63;11.68;;;;;;;;;;5012537;28;20056;-74
2024/02/26 02:14:50;;;;;;;24.60;11.13;;;;;;;;;;5011980;28;20080;-80
2024/02/26 02:17:16;;;;;;;23.90;11.13;;;;;;;;;;5012366;28;20026;-80
2024/02/26 02:19:42;;;;;;;22.40;11.45;;;;;;;;;;5079442;28;20045;-80
2024/02/26 02:22:08;;;;;;;20.50;11.93;;;;;;;;;;5006358;28;20475;-80
2024/02/26 02:24:34;;;;;;;22.17;10.77;;;;;;;;;;5012143;28;20491;-74
2024/02/26 02:27:00;;;;;;;18.55;11.05;;;;;;;;;;5000487;28;20049;-79
2024/02/26 02:29:27;;;;;;;19.65;11.10;;;;;;;;;;5012340;28;20119;-74
2024/02/26 02:31:54;;;;;;;18.98;10.25;;;;;;;;;;5011652;28;20022;-80
2024/02/26 02:34:20;;;;;;;19.52;10.73;;;;;;;;;;5012409;28;20030;-81
2024/02/26 02:36:53;;;;;;;19.20;11.13;;;;;;;;;;5011718;28;20055;-75
2024/02/26 02:39:19;;;;;;;22.58;11.57;;;;;;;;;;5079266;28;20056;-75
2024/02/26 02:41:45;;;;;;;20.50;10.10;;;;;;;;;;5011757;28;20383;-81
2024/02/26 02:44:11;;;;;;;18.63;9.65;;;;;;;;;;5080236;28;20038;-75
2024/02/26 02:46:37;;;;;;;20.30;11.82;;;;;;;;;;5079135;28;20472;-75
2024/02/26 02:49:04;;;;;;;19.27;10.85;;;;;;;;;;5079321;28;20022;-75
2024/02/26 02:51:30;;;;;;;23.33;11.13;;;;;;;;;;5011553;28;20030;-75
2024/02/26 02:53:56;;;;;;;17.88;9.68;;;;;;;;;;5076588;28;20034;-80
2024/02/26 02:56:22;;;;;;;18.45;9.88;;;;;;;;;;5010653;28;20022;-81
2024/02/26 02:58:48;;;;;;;15.23;8.80;;;;;;;;;;5075381;28;20022;-82
2024/02/26 03:01:14;;;;;;;13.82;9.88;;;;;;;;;;5067542;28;20041;-80
2024/02/26 03:03:40;;;;;;;19.98;10.23;;;;;;;;;;5010492;28;20045;-75
2024/02/26 03:06:06;;;;;;;17.60;9.80;;;;;;;;;;5079150;28;20425;-81
2024/02/26 03:08:32;;;;;;;13.45;7.32;;;;;;;;;;5011757;28;20045;-75
2024/02/26 03:11:01;;;;;;;13.98;10.15;;;;;;;;;;5082165;28;20026;-75
2024/02/26 03:13:27;;;;;;;16.15;8.95;;;;;;;;;;5011104;28;20018;-75
2024/02/26 03:15:53;;;;;;;15.68;7.97;;;;;;;;;;5079213;28;20021;-81
2024/02/26 03:18:19;;;;;;;14.98;9.02;;;;;;;;;;5011096;28;20365;-75
2024/02/26 03:20:45;;;;;;;18.35;10.18;;;;;;;;;;5078582;28;20036;-75
2024/02/26 03:23:14;;;;;;;19.73;11.02;;;;;;;;;;5078626;28;20065;-81
2024/02/26 03:25:41;;;;;;;16.20;9.63;;;;;;;;;;5011237;28;20026;-75
2024/02/26 03:28:08;;;;;;;19.33;10.98;;;;;;;;;;5010015;28;20022;-74
2024/02/26 03:30:34;;;;;;;17.05;10.57;;;;;;;;;;5011065;28;20030;-81
2024/02/26 03:33:00;;;;;;;17.50;9.68;;;;;;;;;;5078580;28;20536;-81
2024/02/26 03:35:26;;;;;;;18.52;9.68;;;;;;;;;;5078628;28;20049;-81
2024/02/26 03:37:52;;;;;;;20.98;10.85;;;;;;;;;;5078661;28;20403;-75
2024/02/26 03:40:19;;;;;;;23.52;11.95;;;;;;;;;;5091928;28;20048;-75
2024/02/26 03:42:45;;;;;;;16.05;8.90;;;;;;;;;;5092382;28;20108;-81
2024/02/26 03:45:11;;;;;;;14.07;9.35;;;;;;;;;;5092276;28;20478;-75
2024/02/26 03:47:40;;;;;;;19.83;9.98;;;;;;;;;;5092428;28;20030;-80
2024/02/26 03:50:07;;;;;;;16.52;9.60;;;;;;;;;;5093893;28;20094;-75
2024/02/26 03:52:33;;;;;;;14.98;9.25;;;;;;;;;;5094686;28;20388;-74
2024/02/26 03:55:00;;;;;;;13.18;8.55;;;;;;;;;;5091539;28;20020;-74
2024/02/26 03:57:26;;;;;;;16.90;9.10;;;;;;;;;;5092156;28;20020;-74
2024/02/26 03:59:52;;;;;;;13.32;8.52;;;;;;;;;;5092397;28;20012;-81
2024/02/26 04:02:19;;;;;;;17.67;9.43;;;;;;;;;;5092517;28;20031;-74
2024/02/26 04:04:46;;;;;;;15.90;9.27;;;;;;;;;;5091899;28;20028;-75
2024/02/26 04:07:13;;;;;;;14.77;8.98;;;;;;;;;;5081759;28;20021;-81
2024/02/26 04:09:39;;;;;;;15.25;8.77;;;;;;;;;;5086556;28;20017;-74
2024/02/26 04:12:05;;;;;;;13.75;8.88;;;;;;;;;;5084604;28;20091;-74
2024/02/26 04:14:31;;;;;;;18.30;10.63;;;;;;;;;;5093039;28;20020;-81
2024/02/26 04:16:57;;;;;;;16.60;10.98;;;;;;;;;;5091840;28;20012;-81
2024/02/26 04:19:23;;;;;;;19.08;10.68;;;;;;;;;;5093020;28;20048;-80
2024/02/26 04:21:49;;;;;;;18.52;10.13;;;;;;;;;;5091643;28;20024;-81
2024/02/26 04:24:16;;;;;;;16.40;10.52;;;;;;;;;;5091200;28;20429;-80
2024/02/26 04:26:42;;;;;;;15.90;9.45;;;;;;;;;;5091638;28;20094;-74
2024/02/26 04:29:08;;;;;;;16.13;9.25;;;;;;;;;;5092707;28;20413;-74
2024/02/26 04:31:34;;;;;;;17.65;11.23;;;;;;;;;;5091646;28;20393;-80
2024/02/26 04:34:00;;;;;;;16.00;8.98;;;;;;;;;;5093885;28;20035;-79
2024/02/26 04:36:26;;;;;;;19.45;10.80;;;;;;;;;;5091643;28;20024;-75
2024/02/26 04:38:55;;;;;;;19.55;10.98;;;;;;;;;;5091623;28;20016;-75
2024/02/26 04:41:21;;;;;;;23.45;11.20;;;;;;;;;;5091610;28;20442;-80
2024/02/26 04:43:47;;;;;;;16.58;11.05;;;;;;;;;;5091259;28;20029;-74
2024/02/26 04:46:13;;;;;;;18.50;11.10;;;;;;;;;;5091433;28;20066;-80
2024/02/26 04:48:41;;;;;;;18.55;10.02;;;;;;;;;;5092634;28;20408;-79
2024/02/26 04:51:07;;;;;;;18.80;10.18;;;;;;;;;;5092684;28;20016;-74
2024/02/26 04:53:33;;;;;;;14.80;9.82;;;;;;;;;;5092598;28;20027;-73
2024/02/26 04:55:59;;;;;;;16.25;10.05;;;;;;;;;;5090928;28;20042;-79
2024/02/26 04:58:25;;;;;;;21.75;9.95;;;;;;;;;;5092244;28;20027;-74
2024/02/26 05:00:52;;;;;;;22.83;10.15;;;;;;;;;;5091019;28;20027;-80
2024/02/26 05:03:18;;;;;;;20.50;11.02;;;;;;;;;;5091247;28;20388;-75
2024/02/26 05:05:44;;;;;;;24.15;10.25;;;;;;;;;;5092590;28;20024;-75
2024/02/26 05:08:10;;;;;;;21.02;10.30;;;;;;;;;;5090941;28;20016;-75
2024/02/26 05:10:40;;;;;;;31.85;15.85;;;;;;;;;;5092432;28;20051;-81
2024/02/26 05:13:06;;;;;;;42.25;19.25;;;;;;;;;;5095005;28;20031;-75
2024/02/26 05:15:32;;;;;;;40.28;21.35;;;;;;;;;;5094577;28;20028;-75
2024/02/26 05:17:59;;;;;;;47.55;27.42;;;;;;;;;;5084609;28;20535;-75
2024/02/26 05:20:25;;;;;;;25.75;14.73;;;;;;;;;;5094907;28;20050;-80
2024/02/26 05:22:51;;;;;;;25.20;13.45;;;;;;;;;;5096296;28;20024;-80
2024/02/26 05:25:18;;;;;;;29.60;16.23;;;;;;;;;;5083978;28;20101;-74
2024/02/26 05:27:44;;;;;;;25.33;13.30;;;;;;;;;;5097865;28;20020;-80
2024/02/26 05:30:11;;;;;;;29.30;14.50;;;;;;;;;;5094960;28;20857;-79
2024/02/26 05:32:37;;;;;;;21.48;12.65;;;;;;;;;;5096220;28;20078;-80
2024/02/26 05:35:03;;;;;;;20.05;10.20;;;;;;;;;;5094579;28;20512;-74
2024/02/26 05:37:29;;;;;;;26.33;10.55;;;;;;;;;;5096085;28;20420;-74
2024/02/26 05:39:55;;;;;;;17.02;10.40;;;;;;;;;;5069883;28;20113;-74
2024/02/26 05:42:22;;;;;;;20.33;11.57;;;;;;;;;;5012788;28;20127;-74
2024/02/26 05:44:48;;;;;;;21.15;12.63;;;;;;;;;;5012660;28;20386;-74
2024/02/26 05:47:14;;;;;;;17.67;11.10;;;;;;;;;;5080502;28;20032;-80
2024/02/26 05:49:40;;;;;;;16.67;10.85;;;;;;;;;;5012813;28;20094;-80
2024/02/26 05:52:06;;;;;;;21.63;11.68;;;;;;;;;;5012685;28;20435;-74
2024/02/26 05:54:33;;;;;;;21.10;10.77;;;;;;;;;;5002029;28;20038;-74
2024/02/26 05:56:59;;;;;;;16.15;9.80;;;;;;;;;;5012570;28;20040;-74
2024/02/26 05:59:25;;;;;;;17.27;9.70;;;;;;;;;;5012539;28;20498;-80
2024/02/26 06:01:51;;;;;;;16.05;9.90;;;;;;;;;;5010452;28;20025;-80
2024/02/26 06:04:17;;;;;;;17.88;10.20;;;;;;;;;;5080200;28;20491;-80
2024/02/26 06:06:45;;;;;;;19.73;11.60;;;;;;;;;;5002538;28;20396;-81
2024/02/26 06:09:11;;;;;;;17.63;11.07;;;;;;;;;;5006360;28;20025;-80
2024/02/26 06:11:37;;;;;;;17.08;10.38;;;;;;;;;;5080352;28;20057;-80
2024/02/26 06:14:04;;;;;;;20.55;11.07;;;;;;;;;;5009577;28;20059;-81
2024/02/26 06:16:30;;;;;;;17.05;8.82;;;;;;;;;;5080021;28;20490;-81
2024/02/26 06:18:56;;;;;;;15.95;8.55;;;;;;;;;;5011535;28;20109;-74
2024/02/26 06:21:22;;;;;;;25.58;12.00;;;;;;;;;;5008244;28;20037;-81
2024/02/26 06:23:50;;;;;;;19.58;11.73;;;;;;;;;;5079263;28;20055;-74
2024/02/26 06:26:16;;;;;;;21.60;11.70;;;;;;;;;;4994158;28;20537;-73
2024/02/26 06:28:42;;;;;;;19.67;10.05;;;;;;;;;;5003101;28;20391;-75
2024/02/26 06:31:08;;;;;;;19.20;11.48;;;;;;;;;;5010500;28;20033;-80
2024/02/26 06:33:34;;;;;;;15.45;9.93;;;;;;;;;;5010331;28;20034;-74
2024/02/26 06:36:01;;;;;;;20.80;10.68;;;;;;;;;;5009684;28;20572;-74
2024/02/26 06:38:27;;;;;;;14.65;9.20;;;;;;;;;;5077663;28;20052;-74
2024/02/26 06:40:53;;;;;;;20.00;10.38;;;;;;;;;;5077556;28;20133;-74
2024/02/26 06:43:19;;;;;;;14.98;10.40;;;;;;;;;;5078207;28;20025;-73
2024/02/26 06:45:45;;;;;;;21.65;11.07;;;;;;;;;;5077728;28;20018;-79
2024/02/26 06:48:11;;;;;;;16.92;10.52;;;;;;;;;;4995848;28;20117;-74
2024/02/26 06:50:37;;;;;;;24.02;11.50;;;;;;;;;;4998218;28;20034;-73
2024/02/26 06:53:03;;;;;;;14.73;9.45;;;;;;;;;;5004280;28;20038;-79
2024/02/26 06:55:29;;;;;;;21.88;12.25;;;;;;;;;;5074731;28;20034;-79
2024/02/26 06:57:55;;;;;;;23.02;12.43;;;;;;;;;;5075638;28;20560;-79
2024/02/26 07:00:21;;;;;;;24.02;12.07;;;;;;;;;;5069014;28;20109;-79
2024/02/26 07:02:47;;;;;;;21.50;13.00;;;;;;;;;;5073399;28;20037;-73
2024/02/26 07:05:14;;;;;;;20.00;11.70;;;;;;;;;;4993454;28;20035;-74
2024/02/26 07:07:40;;;;;;;16.50;9.98;;;;;;;;;;5004527;28;20022;-73
2024/02/26 07:10:06;;;;;;;19.55;10.38;;;;;;;;;;5007517;28;20030;-74
2024/02/26 07:12:33;;;;;;;16.58;9.80;;;;;;;;;;5000023;28;20425;-73
2024/02/26 07:14:59;;;;;;;17.10;9.80;;;;;;;;;;5078745;28;20419;-79
2024/02/26 07:17:25;;;;;;;14.63;9.20;;;;;;;;;;5083849;28;20030;-79
2024/02/26 07:19:51;;;;;;;16.42;9.32;;;;;;;;;;5010947;28;20048;-79
2024/02/26 07:22:17;;;;;;;16.55;9.88;;;;;;;;;;5010967;28;20052;-73
2024/02/26 07:24:43;;;;;;;16.40;10.57;;;;;;;;;;5003743;28;20022;-79
2024/02/26 07:27:09;;;;;;;16.48;10.82;;;;;;;;;;5008714;28;20037;-79
2024/02/26 07:29:35;;;;;;;15.10;9.38;;;;;;;;;;5011371;28;20075;-79
2024/02/26 07:32:01;;;;;;;15.82;9.38;;;;;;;;;;5010638;28;20026;-74
2024/02/26 07:34:29;;;;;;;15.50;9.27;;;;;;;;;;5010371;28;20497;-74
2024/02/26 07:36:55;;;;;;;15.23;9.63;;;;;;;;;;5078713;28;20030;-80
2024/02/26 07:39:21;;;;;;;14.43;8.98;;;;;;;;;;5009670;28;20041;-74
2024/02/26 07:41:49;;;;;;;17.90;10.25;;;;;;;;;;5009671;28;20372;-74
2024/02/26 07:44:15;;;;;;;18.13;9.65;;;;;;;;;;5078491;28;20022;-80
2024/02/26 07:46:42;;;;;;;22.35;10.23;;;;;;;;;;5003253;28;20493;-80
2024/02/26 07:49:08;;;;;;;15.77;8.98;;;;;;;;;;5010511;28;20018;-80
2024/02/26 07:51:34;;;;;;;16.73;9.95;;;;;;;;;;5077762;28;20041;-75
2024/02/26 07:54:01;;;;;;;15.90;9.98;;;;;;;;;;5078234;28;20433;-75
2024/02/26 07:56:27;;;;;;;27.13;13.35;;;;;;;;;;5077921;28;20087;-74
2024/02/26 07:58:53;;;;;;;25.15;13.38;;;;;;;;;;5009914;28;20040;-74
2024/02/26 08:01:19;;;;;;;18.92;9.48;;;;;;;;;;5075484;28;20030;-80
2024/02/26 08:03:45;;;;;;;15.88;8.98;;;;;;;;;;5063237;28;20370;-79
2024/02/26 08:06:11;;;;;;;18.23;9.50;;;;;;;;;;5071470;28;20033;-74
2024/02/26 08:08:37;;;;;;;13.00;8.15;;;;;;;;;;4998578;28;20026;-74
2024/02/26 08:11:04;;;;;;;17.30;8.02;;;;;;;;;;5074465;28;20092;-80
2024/02/26 08:13:30;;;;;;;12.80;7.38;;;;;;;;;;5008393;28;20048;-75
2024/02/26 08:15:56;;;;;;;16.13;8.68;;;;;;;;;;5008501;28;20071;-81
2024/02/26 08:18:22;;;;;;;16.65;8.98;;;;;;;;;;5008861;28;20030;-80
2024/02/26 08:20:51;;;;;;;13.75;8.30;;;;;;;;;;5000200;28;20026;-80
2024/02/26 08:23:17;;;;;;;16.92;8.45;;;;;;;;;;5010633;28;20032;-80
2024/02/26 08:25:43;;;;;;;14.02;7.72;;;;;;;;;;5077906;28;20030;-74
2024/02/26 08:28:13;;;;;;;13.75;7.72;;;;;;;;;;5010411;28;20053;-74
2024/02/26 08:30:39;;;;;;;13.85;8.25;;;;;;;;;;5089559;28;20022;-80
2024/02/26 08:33:05;;;;;;;16.30;9.45;;;;;;;;;;5010000;28;20421;-74
2024/02/26 08:35:31;;;;;;;14.23;8.60;;;;;;;;;;5006186;28;20390;-80
2024/02/26 08:37:57;;;;;;;17.15;8.18;;;;;;;;;;5003974;28;20030;-80
2024/02/26 08:40:23;;;;;;;13.50;7.68;;;;;;;;;;5010164;28;20050;-80
2024/02/26 08:42:49;;;;;;;14.43;7.72;;;;;;;;;;5084963;28;20030;-74
2024/02/26 08:45:15;;;;;;;14.23;7.50;;;;;;;;;;5077213;28;20376;-80
2024/02/26 08:47:41;;;;;;;11.48;6.57;;;;;;;;;;5009725;28;20034;-75
2024/02/26 08:50:09;;;;;;;9.18;6.60;;;;;;;;;;5077410;28;20030;-74
2024/02/26 08:52:35;;;;;;;14.50;7.32;;;;;;;;;;5010240;28;20032;-74
2024/02/26 08:55:02;;;;;;;13.13;7.90;;;;;;;;;;5009846;28;20460;-74
2024/02/26 08:57:28;;;;;;;14.13;7.47;;;;;;;;;;5010087;28;20391;-80
2024/02/26 08:59:54;;;;;;;12.00;6.80;;;;;;;;;;5009948;28;20018;-74
2024/02/26 09:02:20;;;;;;;10.38;6.75;;;;;;;;;;5008960;28;20107;-80
2024/02/26 09:04:46;;;;;;;10.40;6.63;;;;;;;;;;5009879;28;20052;-75
2024/02/26 09:07:13;;;;;;;9.52;6.13;;;;;;;;;;5009945;28;20029;-74
2024/02/26 09:09:39;;;;;;;10.00;7.32;;;;;;;;;;5077272;28;20475;-80
2024/02/26 09:12:05;;;;;;;10.43;6.68;;;;;;;;;;5009814;28;20418;-79
2024/02/26 09:14:31;;;;;;;10.05;5.82;;;;;;;;;;5009743;28;20498;-75
2024/02/26 09:16:57;;;;;;;8.88;5.65;;;;;;;;;;5009750;28;20030;-80
2024/02/26 09:19:25;;;;;;;10.65;5.78;;;;;;;;;;5077119;28;20029;-74
2024/02/26 09:21:51;;;;;;;9.43;5.85;;;;;;;;;;5009452;28;20037;-74
2024/02/26 09:24:17;;;;;;;9.20;5.43;;;;;;;;;;5009519;28;20053;-80
2024/02/26 09:26:43;;;;;;;6.40;4.57;;;;;;;;;;5077548;28;20033;-74
2024/02/26 09:29:09;;;;;;;8.48;5.55;;;;;;;;;;5009341;28;20379;-80
2024/02/26 09:31:35;;;;;;;8.80;5.35;;;;;;;;;;5077218;28;20032;-80
2024/02/26 09:34:02;;;;;;;5.13;4.10;;;;;;;;;;5009274;28;20030;-74
2024/02/26 09:36:28;;;;;;;6.07;4.15;;;;;;;;;;5009645;28;20018;-80
2024/02/26 09:38:54;;;;;;;6.80;4.15;;;;;;;;;;5009212;28;20108;-80
2024/02/26 09:41:20;;;;;;;5.18;4.03;;;;;;;;;;5077336;28;20545;-75
2024/02/26 09:43:49;;;;;;;7.45;4.65;;;;;;;;;;5009370;28;20032;-74
2024/02/26 09:46:17;;;;;;;7.82;4.72;;;;;;;;;;5007350;28;20421;-74
2024/02/26 09:48:44;;;;;;;6.70;4.05;;;;;;;;;;5077337;28;20022;-75
2024/02/26 09:51:11;;;;;;;3.88;3.05;;;;;;;;;;5076861;28;20166;-75
2024/02/26 09:53:42;;;;;;;5.25;4.05;;;;;;;;;;5062951;28;20163;-80
2024/02/26 09:56:08;;;;;;;6.80;3.97;;;;;;;;;;5009116;28;20364;-75
2024/02/26 09:58:34;;;;;;;5.78;4.03;;;;;;;;;;5079127;28;20399;-75
2024/02/26 10:01:04;;;;;;;5.75;4.25;;;;;;;;;;5012477;28;20030;-75
2024/02/26 10:03:32;;;;;;;6.57;4.13;;;;;;;;;;5080380;28;20626;-80
2024/02/26 10:05:59;;;;;;;6.00;4.13;;;;;;;;;;5012139;28;20543;-80
2024/02/26 10:08:25;;;;;;;7.55;4.68;;;;;;;;;;5012238;28;20113;-80
2024/02/26 10:10:51;;;;;;;6.30;5.03;;;;;;;;;;5012176;28;20025;-80
2024/02/26 10:13:19;;;;;;;6.68;4.32;;;;;;;;;;5083260;28;20138;-74
2024/02/26 10:15:46;;;;;;;9.05;5.22;;;;;;;;;;5011967;28;20025;-80
2024/02/26 10:18:12;;;;;;;6.82;4.90;;;;;;;;;;5011975;28;20022;-74
2024/02/26 10:20:38;;;;;;;9.15;4.63;;;;;;;;;;5076788;28;20023;-75
2024/02/26 10:23:05;;;;;;;6.65;4.32;;;;;;;;;;5075224;28;20018;-80
2024/02/26 10:25:31;;;;;;;6.05;4.32;;;;;;;;;;5080446;28;20379;-80
2024/02/26 10:28:04;;;;;;;8.00;4.68;;;;;;;;;;5011958;28;20391;-80
2024/02/26 10:30:30;;;;;;;5.22;3.58;;;;;;;;;;5011710;28;20025;-75
2024/02/26 10:32:57;;;;;;;6.95;4.10;;;;;;;;;;5006134;28;20022;-80
2024/02/26 10:35:24;;;;;;;5.55;3.78;;;;;;;;;;5005388;28;20562;-79
2024/02/26 10:37:50;;;;;;;4.40;2.63;;;;;;;;;;5011339;28;20519;-79
2024/02/26 10:40:17;;;;;;;5.75;3.05;;;;;;;;;;5011004;28;20128;-74
2024/02/26 10:42:45;;;;;;;4.72;3.17;;;;;;;;;;4999005;28;20437;-75
2024/02/26 10:45:11;;;;;;;4.72;2.85;;;;;;;;;;5073894;28;20030;-75
2024/02/26 10:47:37;;;;;;;2.70;2.17;;;;;;;;;;5006314;28;20050;-80
2024/02/26 10:50:04;;;;;;;5.05;2.80;;;;;;;;;;4992646;28;20033;-80
2024/02/26 10:52:34;;;;;;;4.15;2.55;;;;;;;;;;5002024;28;20049;-80
2024/02/26 10:55:04;;;;;;;4.65;2.72;;;;;;;;;;5066841;28;20042;-81
2024/02/26 10:57:39;;;;;;;4.28;2.85;;;;;;;;;;5057477;28;20039;-80
2024/02/26 11:00:05;;;;;;;3.08;2.78;;;;;;;;;;5078024;28;21632;-75
2024/02/26 11:02:34;;;;;;;5.57;3.30;;;;;;;;;;4998766;28;20215;-81
2024/02/26 11:05:01;;;;;;;4.78;3.10;;;;;;;;;;5005157;28;20101;-81
2024/02/26 11:07:27;;;;;;;3.28;2.97;;;;;;;;;;5006290;28;20050;-80
2024/02/26 11:09:54;;;;;;;3.42;2.75;;;;;;;;;;5007743;28;20022;-80
2024/02/26 11:12:21;;;;;;;5.80;3.08;;;;;;;;;;4998837;28;20452;-81
2024/02/26 11:14:48;;;;;;;3.50;2.60;;;;;;;;;;5003014;28;20115;-80
2024/02/26 11:17:16;;;;;;;5.40;2.88;;;;;;;;;;5072944;28;20054;-80
2024/02/26 11:19:43;;;;;;;5.32;3.33;;;;;;;;;;5072950;28;20023;-79
2024/02/26 11:22:09;;;;;;;4.90;2.92;;;;;;;;;;5073021;28;20921;-81
2024/02/26 11:24:41;;;;;;;3.25;2.30;;;;;;;;;;5004124;28;20468;-79
2024/02/26 11:27:08;;;;;;;3.75;2.53;;;;;;;;;;5002814;28;20491;-81
2024/02/26 11:29:38;;;;;;;3.45;2.35;;;;;;;;;;5003897;28;20036;-80
2024/02/26 11:32:04;;;;;;;4.75;2.40;;;;;;;;;;5082670;28;20044;-80
2024/02/26 11:34:30;;;;;;;3.20;2.53;;;;;;;;;;4998414;28;20055;-80
2024/02/26 11:36:56;;;;;;;4.22;2.70;;;;;;;;;;5072430;28;20029;-81
2024/02/26 11:39:23;;;;;;;4.65;3.28;;;;;;;;;;4997906;28;20034;-79
2024/02/26 11:41:50;;;;;;;3.92;2.95;;;;;;;;;;4999066;28;20471;-79
2024/02/26 11:44:29;;;;;;;3.88;3.00;;;;;;;;;;5069048;28;20030;-74
2024/02/26 11:46:57;;;;;;;5.10;3.72;;;;;;;;;;5073124;28;20132;-74
2024/02/26 11:49:28;;;;;;;4.78;3.15;;;;;;;;;;5000237;28;20510;-74
2024/02/26 11:51:55;;;;;;;5.22;3.72;;;;;;;;;;5009628;28;20075;-74
2024/02/26 11:54:48;;;;;;;4.78;3.53;;;;;;;;;;5076420;28;20070;-74
2024/02/26 11:57:40;;;;;;;5.75;3.70;;;;;;;;;;4997317;28;20037;-74
2024/02/26 12:00:06;;;;;;;5.70;3.72;;;;;;;;;;4997567;28;20041;-75
2024/02/26 12:02:48;;;;;;;7.78;3.83;;;;;;;;;;5003271;28;20109;-75
2024/02/26 12:05:23;;;;;;;7.95;4.32;;;;;;;;;;5080225;28;20026;-75
2024/02/26 12:07:55;;;;;;;8.10;4.80;;;;;;;;;;5072818;28;20026;-75
2024/02/26 12:10:24;;;;;;;6.55;4.47;;;;;;;;;;5067431;28;20468;-75
2024/02/26 12:12:53;;;;;;;8.40;4.78;;;;;;;;;;5065572;28;20400;-75
2024/02/26 12:15:21;;;;;;;9.13;4.32;;;;;;;;;;5073735;28;20117;-75
2024/02/26 12:17:49;;;;;;;9.95;6.32;;;;;;;;;;5008477;28;20018;-75
2024/02/26 12:20:17;;;;;;;7.15;5.57;;;;;;;;;;5092291;28;20053;-75
2024/02/26 12:22:47;;;;;;;9.10;6.53;;;;;;;;;;5002944;28;20034;-74
2024/02/26 12:25:13;;;;;;;11.20;6.22;;;;;;;;;;5062825;28;20038;-74
2024/02/26 12:27:40;;;;;;;12.18;6.80;;;;;;;;;;4999747;28;20215;-74
2024/02/26 12:30:06;;;;;;;13.82;7.05;;;;;;;;;;5005119;28;20060;-75
2024/02/26 12:32:33;;;;;;;10.10;5.97;;;;;;;;;;5001507;28;20034;-74
2024/02/26 12:34:59;;;;;;;9.40;5.68;;;;;;;;;;5066638;28;20050;-75
2024/02/26 12:37:26;;;;;;;9.68;5.93;;;;;;;;;;5066053;28;20116;-75
2024/02/26 12:39:52;;;;;;;6.97;5.78;;;;;;;;;;5071503;28;20057;-75
2024/02/26 12:42:18;;;;;;;8.10;5.90;;;;;;;;;;5004425;28;20010;-74
2024/02/26 12:44:45;;;;;;;8.77;5.43;;;;;;;;;;5074833;28;20038;-74
2024/02/26 12:47:16;;;;;;;8.57;5.95;;;;;;;;;;5077225;28;20040;-75
2024/02/26 12:49:44;;;;;;;7.45;5.65;;;;;;;;;;4998796;28;20061;-74
2024/02/26 12:52:11;;;;;;;12.00;6.05;;;;;;;;;;5075924;28;20030;-75
2024/02/26 12:54:41;;;;;;;11.15;5.93;;;;;;;;;;4996112;28;20042;-75
2024/02/26 12:57:08;;;;;;;8.15;5.55;;;;;;;;;;5058818;28;20039;-75
2024/02/26 12:59:35;;;;;;;10.48;5.68;;;;;;;;;;5067377;28;20121;-75
2024/02/26 13:02:02;;;;;;;9.40;5.85;;;;;;;;;;5002604;28;20985;-79
2024/02/26 13:04:29;;;;;;;9.50;6.30;;;;;;;;;;5002919;28;20058;-80
2024/02/26 13:07:00;;;;;;;8.25;4.90;;;;;;;;;;5071764;28;20099;-80
2024/02/26 13:09:27;;;;;;;9.57;5.53;;;;;;;;;;4999559;28;20029;-79
2024/02/26 13:11:56;;;;;;;9.13;6.00;;;;;;;;;;5004142;28;20054;-78
2024/02/26 13:14:22;;;;;;;8.50;5.25;;;;;;;;;;4999525;28;20120;-79
2024/02/26 13:16:58;;;;;;;8.73;5.78;;;;;;;;;;5070468;28;20029;-80
2024/02/26 13:19:24;;;;;;;14.70;8.15;;;;;;;;;;4996383;28;20042;-79
2024/02/26 13:21:51;;;;;;;11.38;6.05;;;;;;;;;;5004496;28;20498;-79
2024/02/26 13:24:18;;;;;;;11.93;6.10;;;;;;;;;;4998383;28;20149;-80
2024/02/26 13:26:44;;;;;;;18.40;10.65;;;;;;;;;;5073212;28;20066;-75
2024/02/26 13:29:17;;;;;;;7.78;5.85;;;;;;;;;;5064823;28;20035;-74
2024/02/26 13:31:43;;;;;;;10.02;6.07;;;;;;;;;;4998648;28;20432;-78
2024/02/26 13:34:09;;;;;;;9.82;5.55;;;;;;;;;;4991281;28;20535;-79
2024/02/26 13:36:35;;;;;;;12.25;6.07;;;;;;;;;;5077968;28;20033;-79
2024/02/26 13:39:04;;;;;;;10.15;6.10;;;;;;;;;;5009992;28;20030;-80
2024/02/26 13:41:30;;;;;;;9.43;4.97;;;;;;;;;;5091966;28;20160;-75
2024/02/26 13:43:57;;;;;;;9.45;5.57;;;;;;;;;;5089922;28;20044;-79
2024/02/26 13:46:23;;;;;;;8.30;5.85;;;;;;;;;;5092048;28;20099;-79
2024/02/26 13:48:50;;;;;;;9.48;5.43;;;;;;;;;;5095115;28;20020;-75
2024/02/26 13:51:21;;;;;;;9.65;6.35;;;;;;;;;;5076974;28;20178;-75
2024/02/26 13:53:48;;;;;;;;;;;;;;;;;;5085507;28;20548;-76
2024/02/26 13:56:14;;;;;;;7.85;5.10;;;;;;;;;;5086019;28;19995;-76
2024/02/26 13:58:40;;;;;;;12.80;4.63;;;;;;;;;;5079521;28;20032;-76
2024/02/26 14:01:06;;;;;;;7.95;5.45;;;;;;;;;;5079393;28;20024;-76
2024/02/26 14:03:33;;;;;;;8.23;4.93;;;;;;;;;;5091310;28;20595;-75
2024/02/26 14:05:59;;;;;;;8.82;5.40;;;;;;;;;;5078407;28;20486;-76
2024/02/26 14:08:25;;;;;;;8.10;4.57;;;;;;;;;;5079631;28;20093;-76
2024/02/26 14:10:51;;;;;;;8.98;5.45;;;;;;;;;;5075903;28;20051;-75
2024/02/26 14:13:17;;;;;;;7.78;4.65;;;;;;;;;;5090536;28;20050;-75
2024/02/26 14:15:43;;;;;;;6.65;4.90;;;;;;;;;;5089660;28;20047;-75
2024/02/26 14:18:09;;;;;;;7.20;4.82;;;;;;;;;;5093986;28;20016;-75
2024/02/26 14:20:35;;;;;;;7.25;5.53;;;;;;;;;;5094101;28;20040;-75
2024/02/26 14:23:01;;;;;;;7.10;5.00;;;;;;;;;;5092831;28;20401;-74
2024/02/26 14:25:27;;;;;;;8.95;5.07;;;;;;;;;;5093318;28;20040;-78
2024/02/26 14:27:53;;;;;;;8.23;5.15;;;;;;;;;;5092088;28;20082;-78
2024/02/26 14:30:19;;;;;;;6.78;4.55;;;;;;;;;;5092372;28;20101;-78
2024/02/26 14:32:45;;;;;;;10.27;5.28;;;;;;;;;;5086662;28;20445;-78
2024/02/26 14:35:12;;;;;;;7.15;5.13;;;;;;;;;;5086309;28;20540;-78
2024/02/26 14:37:38;;;;;;;6.75;4.43;;;;;;;;;;5090152;28;20028;-78
2024/02/26 14:40:05;;;;;;;9.57;6.65;;;;;;;;;;5056531;28;20500;-78
2024/02/26 14:42:31;;;;;;;7.53;5.20;;;;;;;;;;5009377;28;20022;-77
2024/02/26 14:44:57;;;;;;;10.05;5.82;;;;;;;;;;5006761;28;20048;-77
2024/02/26 14:47:23;;;;;;;8.68;5.55;;;;;;;;;;5009640;28;20026;-78
2024/02/26 14:49:51;;;;;;;8.77;5.55;;;;;;;;;;4993868;28;20018;-79
2024/02/26 14:52:17;;;;;;;7.45;5.40;;;;;;;;;;5000016;28;20106;-79
2024/02/26 14:54:43;;;;;;;8.80;5.40;;;;;;;;;;5001218;28;20044;-78
2024/02/26 14:57:09;;;;;;;9.85;6.30;;;;;;;;;;5056843;28;20034;-78
2024/02/26 14:59:36;;;;;;;11.07;6.50;;;;;;;;;;5081394;28;20036;-78
2024/02/26 15:02:02;;;;;;;8.70;5.82;;;;;;;;;;5002785;28;20041;-79
2024/02/26 15:04:28;;;;;;;9.40;6.20;;;;;;;;;;5064447;28;20048;-78
2024/02/26 15:06:55;;;;;;;9.77;6.50;;;;;;;;;;5072172;28;20077;-79
2024/02/26 15:09:21;;;;;;;13.25;8.68;;;;;;;;;;5081190;28;20364;-79
2024/02/26 15:11:47;;;;;;;17.80;11.15;;;;;;;;;;5004870;28;20038;-75
2024/02/26 15:14:13;;;;;;;22.52;12.85;;;;;;;;;;5026692;28;20093;-75
2024/02/26 15:16:40;;;;;;;21.63;13.77;;;;;;;;;;5004810;28;20077;-75
2024/02/26 15:19:07;;;;;;;28.25;14.77;;;;;;;;;;5069286;28;20026;-74
2024/02/26 15:21:33;;;;;;;23.05;14.23;;;;;;;;;;4992524;28;20125;-74
2024/02/26 15:23:59;;;;;;;25.13;15.15;;;;;;;;;;4999511;28;20046;-74
2024/02/26 15:26:26;;;;;;;23.77;14.65;;;;;;;;;;5004203;28;20743;-74
2024/02/26 15:28:52;;;;;;;21.83;13.48;;;;;;;;;;4999621;28;20026;-74
2024/02/26 15:31:20;;;;;;;21.10;13.77;;;;;;;;;;5008166;28;20042;-74